MAPA DE AEROPUERTO

INFORMACIÓN METAR y TAF

METAR FOR LEJR
ADDS - METARS form results

(2149 UTC 31 October 2020)
Data provider http://aviationweather.gov/metar/data/
 
METAR text: LEJR 312130Z 00000KT CAVOK 15/13 Q1025
Conditions at: LEJR (JEREZ (CIV/MIL) , ES) observed 2130 UTC 31 October 2020
Temperature: 15.0°C (59°F)
Dewpoint: 13.0°C (55°F) [RH = 88%]
Pressure (altimeter): 30.27 inches Hg (1025.0 mb)
Winds: calm
Visibility: 6 or more miles (10+ km)
Ceiling: ceiling and visibility are OK
Clouds: unknown
Weather: no significant weather observed at this time

METAR text: LEJR 312100Z 03001KT CAVOK 15/13 Q1025
Conditions at: LEJR (JEREZ (CIV/MIL) , ES) observed 2100 UTC 31 October 2020
Temperature: 15.0°C (59°F)
Dewpoint: 13.0°C (55°F) [RH = 88%]
Pressure (altimeter): 30.27 inches Hg (1025.0 mb)
Winds: from the NNE (30 degrees) at 1 MPH (1 knots; 0.5 m/s)
Visibility: 6 or more miles (10+ km)
Ceiling: ceiling and visibility are OK
Clouds: unknown
Weather: no significant weather observed at this time

Forecast for: LEJR (JEREZ (CIV/MIL) , ES)
Text: TAF LEJR 311700Z 3118/0118 VRB03KT CAVOK TX28/0114Z TN10/0106Z
Forecast period: 1800 UTC 31 October 2020 to 1800 UTC 01 November 2020
Forecast type: FROM: standard forecast or significant change
Winds: variable direction winds at 3 MPH (3 knots; 1.5 m/s)
Visibility: 6 or more miles (10+ km)
Ceiling: unknown
Clouds: missing
Weather: no significant weather forecast for this period